Aplicació Alertes

Dades de l'estació automàtica Batea

?
?
Resum diari 23:00 TU
Dades diàries de l'estació meteorològica
Temperatura mitjana 8.7 °C
Temperatura màxima 14.2 °C 14:59 TU
Temperatura mínima 4.5 °C 7:13 TU
Humitat relativa mitjana 56%
Precipitació acumulada 0.0 mm
Ratxa màxima del vent (2 m) 21.6 km/h - 312º 11:27 TU
Irradiació solar global 11.3 MJ/m2

El tram horari està expressat en Temps Universal (TU). Cal sumar una hora en horari d'hivern i dues en horari d'estiu per passar a l'hora oficial.

Batea

Metadades estació meteorol´gica
Municipi Batea
Comarca Terra Alta
Altitud 382 m
Data alta 23.12.1999
Estat actual Operativa
Dades de període
Període
TU
TM
°C
TX
°C
TN
°C
HRM
%
PPT
mm
VVM (2 m)
km/h
DVM (2 m)
graus
VVX (2 m)
km/h
RS
W/m2
00:00 - 00:30 7.7 7.8 7.5 72 0.0 3.6 252 10.4 0
00:30 - 01:00 7.3 7.5 7.0 74 0.0 2.2 241 6.8 0
01:00 - 01:30 7.1 7.2 6.9 75 0.0 3.2 219 9.0 0
01:30 - 02:00 6.8 7.0 6.7 75 0.0 2.5 229 7.6 0
02:00 - 02:30 6.4 6.7 6.2 76 0.0 4.0 210 7.9 0
02:30 - 03:00 6.6 6.8 6.2 76 0.0 2.5 224 7.2 0
03:00 - 03:30 6.4 6.5 6.3 76 0.0 2.9 227 9.4 0
03:30 - 04:00 6.1 6.3 5.5 76 0.0 2.5 275 9.0 0
04:00 - 04:30 5.4 5.7 4.9 79 0.0 1.8 311 6.8 0
04:30 - 05:00 5.2 5.6 4.9 80 0.0 2.2 264 6.5 0
05:00 - 05:30 5.5 5.6 5.5 77 0.0 2.2 253 7.9 0
05:30 - 06:00 5.5 5.7 5.2 77 0.0 1.8 230 8.3 0
06:00 - 06:30 5.2 5.4 5.1 78 0.0 1.4 249 5.4 0
06:30 - 07:00 5.2 5.4 5.1 79 0.0 1.1 207 4.7 5
07:00 - 07:30 5.1 6.2 4.5 79 0.0 1.4 203 5.8 46
07:30 - 08:00 5.9 6.2 5.5 75 0.0 0.7 307 4.3 104
08:00 - 08:30 6.2 6.6 5.9 74 0.0 0.4 25 2.5 190
08:30 - 09:00 8.2 9.1 6.6 67 0.0 2.5 236 11.2 271
09:00 - 09:30 9.4 9.7 9.2 61 0.0 4.3 261 11.5 359
09:30 - 10:00 10.1 10.6 9.7 58 0.0 5.4 267 13.0 419
10:00 - 10:30 11.2 11.4 10.7 53 0.0 5.0 295 15.5 469
10:30 - 11:00 11.4 11.5 11.2 51 0.0 7.6 317 18.0 505
11:00 - 11:30 11.7 12.1 11.3 49 0.0 7.6 327 21.6 526
11:30 - 12:00 12.3 12.6 11.9 43 0.0 7.9 322 18.0 534
12:00 - 12:30 12.8 13.0 12.4 39 0.0 7.6 321 19.1 527
12:30 - 13:00 13.2 13.8 12.9 37 0.0 7.9 325 18.7 505
13:00 - 13:30 13.5 13.8 13.3 34 0.0 8.6 321 20.2 468
13:30 - 14:00 13.7 14.0 13.5 34 0.0 6.8 322 18.0 418
14:00 - 14:30 13.9 14.0 13.8 33 0.0 6.5 325 14.8 353
14:30 - 15:00 14.0 14.2 13.8 30 0.0 6.5 318 16.6 284
15:00 - 15:30 13.7 14.1 13.4 30 0.0 4.7 322 14.8 198
15:30 - 16:00 13.1 13.4 12.7 32 0.0 2.5 300 7.6 66
16:00 - 16:30 12.3 12.7 11.6 31 0.0 2.5 298 8.6 13
16:30 - 17:00 11.1 11.5 10.8 34 0.0 2.5 267 4.3 3
17:00 - 17:30 10.7 11.1 10.2 35 0.0 2.9 265 4.3 0
17:30 - 18:00 8.7 10.0 8.0 42 0.0 0.0 173 2.2 0
18:00 - 18:30 8.4 9.3 7.2 45 0.0 1.4 214 4.0 0
18:30 - 19:00 8.2 8.8 7.5 47 0.0 0.7 247 3.2 0
19:00 - 19:30 8.1 9.0 7.1 47 0.0 1.8 214 6.1 0
19:30 - 20:00 8.8 9.0 8.4 45 0.0 2.2 219 5.8 0
20:00 - 20:30 8.3 8.4 8.2 46 0.0 3.6 203 7.9 0
20:30 - 21:00 8.2 8.4 7.9 46 0.0 3.2 201 7.2 0
21:00 - 21:30 7.0 7.8 6.1 51 0.0 1.1 199 3.6 0
21:30 - 22:00 7.1 8.0 6.2 51 0.0 2.2 201 6.8 0
22:00 - 22:30 6.3 8.0 4.8 53 0.0 0.4 221 4.3 0
22:30 - 23:00 5.3 5.7 4.9 57 0.0 0.4 176 2.5 0
23:00 - 23:30 5.2 5.6 4.7 56 0.0 0.7 142 4.0 0

Les dades en taronja només han passat un control de qualitat automàtic. Resta pendent la seva validació definitiva.